sensor_id;sensor_type;location;lat;lon;timestamp;pressure;altitude;pressure_sealevel;temperature;humidity
41800;BME280;27468;47.460;19.034;2024-03-08T00:01:40;100736.47;;;6.60;100.00
41800;BME280;27468;47.460;19.034;2024-03-08T00:04:06;100772.22;;;6.49;100.00
41800;BME280;27468;47.460;19.034;2024-03-08T00:06:32;100747.72;;;6.19;100.00
41800;BME280;27468;47.460;19.034;2024-03-08T00:08:57;100740.72;;;6.21;100.00
41800;BME280;27468;47.460;19.034;2024-03-08T00:11:22;100761.72;;;6.32;100.00
41800;BME280;27468;47.460;19.034;2024-03-08T00:13:51;100725.84;;;6.05;100.00
41800;BME280;27468;47.460;19.034;2024-03-08T00:16:17;100740.72;;;6.15;100.00
41800;BME280;27468;47.460;19.034;2024-03-08T00:18:44;100768.69;;;6.38;100.00
41800;BME280;27468;47.460;19.034;2024-03-08T00:21:10;100737.22;;;6.15;100.00
41800;BME280;27468;47.460;19.034;2024-03-08T00:23:37;100750.38;;;6.28;100.00
41800;BME280;27468;47.460;19.034;2024-03-08T00:26:02;100758.22;;;6.25;100.00
41800;BME280;27468;47.460;19.034;2024-03-08T00:28:29;100734.66;;;6.25;100.00
41800;BME280;27468;47.460;19.034;2024-03-08T00:30:56;100753.84;;;6.38;100.00
41800;BME280;27468;47.460;19.034;2024-03-08T00:33:21;100722.44;;;6.43;100.00
41800;BME280;27468;47.460;19.034;2024-03-08T00:35:46;100756.53;;;6.52;100.00
41800;BME280;27468;47.460;19.034;2024-03-08T00:38:12;100750.44;;;6.57;100.00
41800;BME280;27468;47.460;19.034;2024-03-08T00:40:38;100747.78;;;6.51;100.00
41800;BME280;27468;47.460;19.034;2024-03-08T00:43:03;100747.81;;;6.59;100.00
41800;BME280;27468;47.460;19.034;2024-03-08T00:45:29;100742.63;;;6.85;100.00
41800;BME280;27468;47.460;19.034;2024-03-08T00:47:54;100728.63;;;6.69;100.00
41800;BME280;27468;47.460;19.034;2024-03-08T00:50:20;100737.38;;;6.77;100.00
41800;BME280;27468;47.460;19.034;2024-03-08T00:52:45;100746.13;;;6.88;100.00
41800;BME280;27468;47.460;19.034;2024-03-08T00:55:11;100718.16;;;6.81;100.00
41800;BME280;27468;47.460;19.034;2024-03-08T00:57:37;100733.03;;;6.90;100.00
41800;BME280;27468;47.460;19.034;2024-03-08T01:00:05;100738.25;;;6.82;100.00
41800;BME280;27468;47.460;19.034;2024-03-08T01:02:35;100737.34;;;6.70;100.00
41800;BME280;27468;47.460;19.034;2024-03-08T01:05:01;100721.59;;;6.57;100.00
41800;BME280;27468;47.460;19.034;2024-03-08T01:07:26;100727.72;;;6.59;100.00
41800;BME280;27468;47.460;19.034;2024-03-08T01:09:51;100719.88;;;6.72;100.00
41800;BME280;27468;47.460;19.034;2024-03-08T01:12:17;100704.13;;;6.46;100.00
41800;BME280;27468;47.460;19.034;2024-03-08T01:14:42;100704.16;;;6.56;100.00
41800;BME280;27468;47.460;19.034;2024-03-08T01:17:07;100728.63;;;6.72;100.00
41800;BME280;27468;47.460;19.034;2024-03-08T01:19:34;100737.38;;;6.86;100.00
41800;BME280;27468;47.460;19.034;2024-03-08T01:21:59;100721.63;;;6.68;100.00
41800;BME280;27468;47.460;19.034;2024-03-08T01:24:25;100728.59;;;6.60;100.00
41800;BME280;27468;47.460;19.034;2024-03-08T01:26:50;100721.63;;;6.60;100.00
41800;BME280;27468;47.460;19.034;2024-03-08T01:29:15;100736.47;;;6.72;100.00
41800;BME280;27468;47.460;19.034;2024-03-08T01:31:41;100726.88;;;6.74;100.00
41800;BME280;27468;47.460;19.034;2024-03-08T01:34:06;100731.25;;;6.78;100.00
41800;BME280;27468;47.460;19.034;2024-03-08T01:36:31;100719.00;;;6.71;100.00
41800;BME280;27468;47.460;19.034;2024-03-08T01:38:57;100705.00;;;6.46;100.00
41800;BME280;27468;47.460;19.034;2024-03-08T01:41:22;100714.59;;;6.49;100.00
41800;BME280;27468;47.460;19.034;2024-03-08T01:43:48;100710.25;;;6.49;100.00
41800;BME280;27468;47.460;19.034;2024-03-08T01:46:18;100717.22;;;6.44;100.00
41800;BME280;27468;47.460;19.034;2024-03-08T01:48:44;100707.63;;;6.49;100.00
41800;BME280;27468;47.460;19.034;2024-03-08T01:51:10;100705.88;;;6.51;100.00
41800;BME280;27468;47.460;19.034;2024-03-08T01:53:37;100724.19;;;6.44;100.00
41800;BME280;27468;47.460;19.034;2024-03-08T01:56:03;100728.63;;;6.65;100.00
41800;BME280;27468;47.460;19.034;2024-03-08T01:58:29;100701.50;;;6.47;100.00
41800;BME280;27468;47.460;19.034;2024-03-08T02:00:56;100717.25;;;6.55;100.00
41800;BME280;27468;47.460;19.034;2024-03-08T02:03:23;100691.91;;;6.34;100.00
41800;BME280;27468;47.460;19.034;2024-03-08T02:05:48;100712.84;;;6.39;100.00
41800;BME280;27468;47.460;19.034;2024-03-08T02:08:14;100710.25;;;6.51;100.00
41800;BME280;27468;47.460;19.034;2024-03-08T02:10:44;100709.38;;;6.61;100.00
41800;BME280;27468;47.460;19.034;2024-03-08T02:13:10;100702.41;;;6.57;99.69
41800;BME280;27468;47.460;19.034;2024-03-08T02:15:57;100738.22;;;6.67;99.78
41800;BME280;27468;47.460;19.034;2024-03-08T02:18:24;100705.00;;;6.55;100.00
41800;BME280;27468;47.460;19.034;2024-03-08T02:20:54;100708.50;;;6.59;98.26
41800;BME280;27468;47.460;19.034;2024-03-08T02:23:20;100707.63;;;6.57;97.65
41800;BME280;27468;47.460;19.034;2024-03-08T02:25:46;100706.81;;;6.88;98.20
41800;BME280;27468;47.460;19.034;2024-03-08T02:28:12;100724.28;;;6.86;96.46
41800;BME280;27468;47.460;19.034;2024-03-08T02:30:38;100728.63;;;6.95;97.58
41800;BME280;27468;47.460;19.034;2024-03-08T02:33:05;100733.00;;;6.99;96.69
41800;BME280;27468;47.460;19.034;2024-03-08T02:35:31;100715.53;;;6.90;96.07
41800;BME280;27468;47.460;19.034;2024-03-08T02:37:56;100703.28;;;6.74;95.69
41800;BME280;27468;47.460;19.034;2024-03-08T02:40:21;100724.25;;;7.00;95.49
41800;BME280;27468;47.460;19.034;2024-03-08T02:42:47;100715.53;;;6.81;95.08
41800;BME280;27468;47.460;19.034;2024-03-08T02:45:12;100715.53;;;6.78;95.85
41800;BME280;27468;47.460;19.034;2024-03-08T02:47:38;100722.53;;;6.84;95.50
41800;BME280;27468;47.460;19.034;2024-03-08T02:50:04;100739.97;;;6.94;95.51
41800;BME280;27468;47.460;19.034;2024-03-08T02:52:35;100718.16;;;6.84;95.69
41800;BME280;27468;47.460;19.034;2024-03-08T02:55:02;100743.47;;;7.04;95.40
41800;BME280;27468;47.460;19.034;2024-03-08T02:57:27;100700.69;;;6.91;95.25
41800;BME280;27468;47.460;19.034;2024-03-08T02:59:55;100737.34;;;6.97;95.59
41800;BME280;27468;47.460;19.034;2024-03-08T03:02:21;100740.88;;;6.93;94.80
41800;BME280;27468;47.460;19.034;2024-03-08T03:04:48;100714.63;;;6.62;96.54
41800;BME280;27468;47.460;19.034;2024-03-08T03:07:13;100723.41;;;6.84;96.75
41800;BME280;27468;47.460;19.034;2024-03-08T03:09:39;100718.16;;;6.75;94.79
41800;BME280;27468;47.460;19.034;2024-03-08T03:12:04;100738.25;;;6.91;94.90
41800;BME280;27468;47.460;19.034;2024-03-08T03:14:29;100745.25;;;6.83;94.33
41800;BME280;27468;47.460;19.034;2024-03-08T03:16:55;100712.88;;;6.55;95.85
41800;BME280;27468;47.460;19.034;2024-03-08T03:19:20;100739.13;;;6.87;96.42
41800;BME280;27468;47.460;19.034;2024-03-08T03:21:46;100745.22;;;6.74;95.91
41800;BME280;27468;47.460;19.034;2024-03-08T03:24:11;100739.13;;;6.81;96.34
41800;BME280;27468;47.460;19.034;2024-03-08T03:26:38;100750.50;;;6.86;94.74
41800;BME280;27468;47.460;19.034;2024-03-08T03:29:07;100749.59;;;6.83;93.29
41800;BME280;27468;47.460;19.034;2024-03-08T03:31:33;100716.38;;;6.67;92.87
41800;BME280;27468;47.460;19.034;2024-03-08T03:33:59;100736.47;;;6.60;94.56
41800;BME280;27468;47.460;19.034;2024-03-08T03:36:27;100749.63;;;6.87;95.62
41800;BME280;27468;47.460;19.034;2024-03-08T03:38:53;100722.50;;;6.96;95.83
41800;BME280;27468;47.460;19.034;2024-03-08T03:41:30;100746.09;;;7.22;95.71
41800;BME280;27468;47.460;19.034;2024-03-08T03:43:55;100740.88;;;7.23;95.83
41800;BME280;27468;47.460;19.034;2024-03-08T03:46:20;100741.75;;;7.27;95.21
41800;BME280;27468;47.460;19.034;2024-03-08T03:48:45;100747.84;;;7.38;94.38
41800;BME280;27468;47.460;19.034;2024-03-08T03:51:11;100739.13;;;7.27;93.90
41800;BME280;27468;47.460;19.034;2024-03-08T03:53:37;100732.13;;;7.32;94.19
41800;BME280;27468;47.460;19.034;2024-03-08T03:56:02;100745.22;;;7.17;93.56
41800;BME280;27468;47.460;19.034;2024-03-08T03:58:32;100754.84;;;7.30;94.35
41800;BME280;27468;47.460;19.034;2024-03-08T04:00:57;100730.38;;;7.26;93.14
41800;BME280;27468;47.460;19.034;2024-03-08T04:03:23;100733.88;;;7.00;93.55
41800;BME280;27468;47.460;19.034;2024-03-08T04:05:48;100750.47;;;6.99;93.78
41800;BME280;27468;47.460;19.034;2024-03-08T04:08:14;100729.50;;;6.68;95.27
41800;BME280;27468;47.460;19.034;2024-03-08T04:10:40;100743.50;;;6.84;95.34
41800;BME280;27468;47.460;19.034;2024-03-08T04:13:07;100701.53;;;6.62;94.89
41800;BME280;27468;47.460;19.034;2024-03-08T04:15:34;100734.72;;;6.70;96.31
41800;BME280;27468;47.460;19.034;2024-03-08T04:18:00;100747.84;;;7.00;95.58
41800;BME280;27468;47.460;19.034;2024-03-08T04:20:25;100722.50;;;7.01;95.70
41800;BME280;27468;47.460;19.034;2024-03-08T04:22:51;100722.53;;;6.91;95.03
41800;BME280;27468;47.460;19.034;2024-03-08T04:25:16;100749.59;;;7.01;93.92
41800;BME280;27468;47.460;19.034;2024-03-08T04:27:41;100757.44;;;6.93;94.22
41800;BME280;27468;47.460;19.034;2024-03-08T04:30:07;100756.59;;;7.10;94.72
41800;BME280;27468;47.460;19.034;2024-03-08T04:32:33;100727.78;;;6.88;94.57
41800;BME280;27468;47.460;19.034;2024-03-08T04:34:58;100723.41;;;6.81;94.71
41800;BME280;27468;47.460;19.034;2024-03-08T04:37:26;100719.03;;;6.82;94.64
41800;BME280;27468;47.460;19.034;2024-03-08T04:39:51;100726.00;;;7.00;94.98
41800;BME280;27468;47.460;19.034;2024-03-08T04:42:17;100744.34;;;7.13;94.23
41800;BME280;27468;47.460;19.034;2024-03-08T04:44:43;100762.72;;;7.21;94.68
41800;BME280;27468;47.460;19.034;2024-03-08T04:47:08;100752.22;;;7.30;94.35
41800;BME280;27468;47.460;19.034;2024-03-08T04:49:35;100745.22;;;7.35;94.27
41800;BME280;27468;47.460;19.034;2024-03-08T04:52:04;100754.84;;;7.41;93.94
41800;BME280;27468;47.460;19.034;2024-03-08T04:54:30;100744.34;;;7.33;93.56
41800;BME280;27468;47.460;19.034;2024-03-08T04:56:56;100738.25;;;7.33;94.05
41800;BME280;27468;47.460;19.034;2024-03-08T04:59:21;100758.34;;;7.40;94.16
41800;BME280;27468;47.460;19.034;2024-03-08T05:01:47;100749.59;;;7.22;94.82
41800;BME280;27468;47.460;19.034;2024-03-08T05:04:13;100746.09;;;7.07;95.51
41800;BME280;27468;47.460;19.034;2024-03-08T05:06:38;100751.34;;;7.29;94.77
41800;BME280;27468;47.460;19.034;2024-03-08T05:09:03;100741.75;;;7.13;94.02
41800;BME280;27468;47.460;19.034;2024-03-08T05:11:45;100737.38;;;7.00;95.43
41800;BME280;27468;47.460;19.034;2024-03-08T05:14:11;100752.22;;;7.24;95.43
41800;BME280;27468;47.460;19.034;2024-03-08T05:16:37;100760.09;;;7.33;95.56
41800;BME280;27468;47.460;19.034;2024-03-08T05:19:03;100739.13;;;7.36;95.45
41800;BME280;27468;47.460;19.034;2024-03-08T05:21:28;100760.09;;;7.47;94.54
41800;BME280;27468;47.460;19.034;2024-03-08T05:23:54;100745.22;;;7.41;94.78
41800;BME280;27468;47.460;19.034;2024-03-08T05:26:19;100748.72;;;7.34;94.30
41800;BME280;27468;47.460;19.034;2024-03-08T05:28:44;100764.47;;;7.39;94.62
41800;BME280;27468;47.460;19.034;2024-03-08T05:31:10;100765.34;;;7.41;95.22
41800;BME280;27468;47.460;19.034;2024-03-08T05:33:35;100760.09;;;7.18;94.18
41800;BME280;27468;47.460;19.034;2024-03-08T05:36:00;100743.50;;;6.85;94.37
41800;BME280;27468;47.460;19.034;2024-03-08T05:38:27;100773.19;;;7.06;94.91
41800;BME280;27468;47.460;19.034;2024-03-08T05:40:53;100770.56;;;6.98;94.87
41800;BME280;27468;47.460;19.034;2024-03-08T05:43:19;100747.00;;;6.87;95.29
41800;BME280;27468;47.460;19.034;2024-03-08T05:45:45;100770.59;;;7.12;93.80
41800;BME280;27468;47.460;19.034;2024-03-08T05:48:10;100785.44;;;7.25;93.65
41800;BME280;27468;47.460;19.034;2024-03-08T05:50:38;100753.09;;;7.12;94.03
41800;BME280;27468;47.460;19.034;2024-03-08T05:53:03;100750.47;;;7.17;93.79
41800;BME280;27468;47.460;19.034;2024-03-08T05:55:32;100764.47;;;7.23;94.04
41800;BME280;27468;47.460;19.034;2024-03-08T05:58:03;100768.84;;;7.32;93.94
41800;BME280;27468;47.460;19.034;2024-03-08T06:00:28;100796.81;;;7.44;93.52
41800;BME280;27468;47.460;19.034;2024-03-08T06:02:56;100788.94;;;7.35;93.95
41800;BME280;27468;47.460;19.034;2024-03-08T06:05:21;100788.06;;;7.39;93.34
41800;BME280;27468;47.460;19.034;2024-03-08T06:07:48;100771.47;;;7.34;93.05
41800;BME280;27468;47.460;19.034;2024-03-08T06:10:13;100774.09;;;7.32;91.70
41800;BME280;27468;47.460;19.034;2024-03-08T06:12:39;100781.94;;;7.21;92.47
41800;BME280;27468;47.460;19.034;2024-03-08T06:15:08;100769.72;;;7.25;92.81
41800;BME280;27468;47.460;19.034;2024-03-08T06:17:38;100806.44;;;7.49;92.92
41800;BME280;27468;47.460;19.034;2024-03-08T06:20:03;100774.06;;;7.20;92.18
41800;BME280;27468;47.460;19.034;2024-03-08T06:22:35;100773.22;;;7.30;92.09
41800;BME280;27468;47.460;19.034;2024-03-08T06:25:00;100781.06;;;7.06;93.82
41800;BME280;27468;47.460;19.034;2024-03-08T06:27:26;100804.63;;;6.95;93.12
41800;BME280;27468;47.460;19.034;2024-03-08T06:29:51;100760.06;;;6.66;95.82
41800;BME280;27468;47.460;19.034;2024-03-08T06:32:16;100808.16;;;7.03;94.25
41800;BME280;27468;47.460;19.034;2024-03-08T06:34:42;100774.94;;;6.96;95.81
41800;BME280;27468;47.460;19.034;2024-03-08T06:37:07;100777.56;;;7.10;94.95
41800;BME280;27468;47.460;19.034;2024-03-08T06:39:32;100777.56;;;7.11;94.14
41800;BME280;27468;47.460;19.034;2024-03-08T06:41:59;100795.06;;;7.17;94.47
41800;BME280;27468;47.460;19.034;2024-03-08T06:44:25;100796.78;;;7.07;93.94
41800;BME280;27468;47.460;19.034;2024-03-08T06:46:50;100802.03;;;7.03;93.94
41800;BME280;27468;47.460;19.034;2024-03-08T06:49:16;100792.41;;;7.00;94.72
41800;BME280;27468;47.460;19.034;2024-03-08T06:51:41;100818.66;;;7.35;95.53
41800;BME280;27468;47.460;19.034;2024-03-08T06:54:07;100801.19;;;7.45;93.08
41800;BME280;27468;47.460;19.034;2024-03-08T06:56:37;100824.78;;;7.58;93.61
41800;BME280;27468;47.460;19.034;2024-03-08T06:59:03;100795.91;;;7.52;94.46
41800;BME280;27468;47.460;19.034;2024-03-08T07:01:29;100812.50;;;7.67;93.36
41800;BME280;27468;47.460;19.034;2024-03-08T07:03:57;100821.28;;;7.61;91.50
41800;BME280;27468;47.460;19.034;2024-03-08T07:06:23;100814.31;;;7.51;93.11
41800;BME280;27468;47.460;19.034;2024-03-08T07:08:48;100810.78;;;7.59;93.19
41800;BME280;27468;47.460;19.034;2024-03-08T07:11:14;100815.19;;;7.36;91.63
41800;BME280;27468;47.460;19.034;2024-03-08T07:13:44;100782.81;;;7.13;93.05
41800;BME280;27468;47.460;19.034;2024-03-08T07:16:10;100788.06;;;7.31;94.08
41800;BME280;27468;47.460;19.034;2024-03-08T07:18:37;100803.81;;;7.46;92.63
41800;BME280;27468;47.460;19.034;2024-03-08T07:21:05;100790.69;;;7.33;90.83
41800;BME280;27468;47.460;19.034;2024-03-08T07:23:30;100789.81;;;7.11;92.42
41800;BME280;27468;47.460;19.034;2024-03-08T07:26:17;100814.28;;;7.25;92.66
41800;BME280;27468;47.460;19.034;2024-03-08T07:28:44;100823.91;;;7.31;93.71
41800;BME280;27468;47.460;19.034;2024-03-08T07:31:10;100810.81;;;7.49;93.84
41800;BME280;27468;47.460;19.034;2024-03-08T07:33:42;100809.88;;;7.67;93.97
41800;BME280;27468;47.460;19.034;2024-03-08T07:36:07;100818.63;;;7.87;93.54
41800;BME280;27468;47.460;19.034;2024-03-08T07:38:33;100831.75;;;7.90;93.30
41800;BME280;27468;47.460;19.034;2024-03-08T07:40:59;100830.00;;;7.89;93.86
41800;BME280;27468;47.460;19.034;2024-03-08T07:43:25;100835.22;;;7.95;93.86
41800;BME280;27468;47.460;19.034;2024-03-08T07:45:50;100831.72;;;8.08;93.18
41800;BME280;27468;47.460;19.034;2024-03-08T07:48:18;100829.09;;;8.02;92.15
41800;BME280;27468;47.460;19.034;2024-03-08T07:50:43;100794.97;;;7.91;91.29
41800;BME280;27468;47.460;19.034;2024-03-08T07:53:09;100801.09;;;7.97;90.75
41800;BME280;27468;47.460;19.034;2024-03-08T07:55:35;100814.13;;;8.19;91.23
41800;BME280;27468;47.460;19.034;2024-03-08T07:58:01;100836.03;;;8.20;90.49
41800;BME280;27468;47.460;19.034;2024-03-08T08:00:28;100829.00;;;8.23;90.75
41800;BME280;27468;47.460;19.034;2024-03-08T08:02:53;100808.13;;;7.90;90.05
41800;BME280;27468;47.460;19.034;2024-03-08T08:05:19;100834.34;;;8.05;90.05
41800;BME280;27468;47.460;19.034;2024-03-08T08:07:45;100834.34;;;8.01;90.66
41800;BME280;27468;47.460;19.034;2024-03-08T08:10:12;100837.78;;;8.18;91.38
41800;BME280;27468;47.460;19.034;2024-03-08T08:12:47;100805.41;;;8.11;89.35
41800;BME280;27468;47.460;19.034;2024-03-08T08:15:13;100834.28;;;8.16;90.48
41800;BME280;27468;47.460;19.034;2024-03-08T08:17:40;100836.97;;;8.05;90.47
41800;BME280;27468;47.460;19.034;2024-03-08T08:20:06;100829.13;;;7.88;91.00
41800;BME280;27468;47.460;19.034;2024-03-08T08:22:31;100804.63;;;7.88;91.44
41800;BME280;27468;47.460;19.034;2024-03-08T08:24:57;100823.88;;;7.87;92.30
41800;BME280;27468;47.460;19.034;2024-03-08T08:27:22;100802.03;;;7.67;93.52
41800;BME280;27468;47.460;19.034;2024-03-08T08:29:48;100827.34;;;8.07;93.31
41800;BME280;27468;47.460;19.034;2024-03-08T08:32:14;100829.03;;;8.20;92.86
41800;BME280;27468;47.460;19.034;2024-03-08T08:34:40;100813.25;;;8.19;92.93
41800;BME280;27468;47.460;19.034;2024-03-08T08:37:07;100820.25;;;8.35;92.60
41800;BME280;27468;47.460;19.034;2024-03-08T08:39:35;100843.88;;;8.43;92.32
41800;BME280;27468;47.460;19.034;2024-03-08T08:42:00;100826.38;;;8.33;92.69
41800;BME280;27468;47.460;19.034;2024-03-08T08:44:25;100807.09;;;8.27;93.64
41800;BME280;27468;47.460;19.034;2024-03-08T08:46:50;100822.88;;;8.40;93.78
41800;BME280;27468;47.460;19.034;2024-03-08T08:49:16;100824.56;;;8.56;93.71
41800;BME280;27468;47.460;19.034;2024-03-08T08:51:54;100837.72;;;8.48;92.83
41800;BME280;27468;47.460;19.034;2024-03-08T08:54:19;100809.75;;;8.18;95.08
41800;BME280;27468;47.460;19.034;2024-03-08T08:56:45;100808.88;;;8.35;94.29
41800;BME280;27468;47.460;19.034;2024-03-08T08:59:12;100802.78;;;8.14;95.37
41800;BME280;27468;47.460;19.034;2024-03-08T09:01:39;100820.25;;;8.26;94.92
41800;BME280;27468;47.460;19.034;2024-03-08T09:04:05;100807.13;;;8.17;95.41
41800;BME280;27468;47.460;19.034;2024-03-08T09:06:31;100808.88;;;8.24;93.68
41800;BME280;27468;47.460;19.034;2024-03-08T09:08:56;100828.06;;;8.52;92.69
41800;BME280;27468;47.460;19.034;2024-03-08T09:11:21;100814.09;;;8.42;92.53
41800;BME280;27468;47.460;19.034;2024-03-08T09:13:46;100818.50;;;8.36;93.86
41800;BME280;27468;47.460;19.034;2024-03-08T09:16:12;100823.66;;;8.63;92.78
41800;BME280;27468;47.460;19.034;2024-03-08T09:18:37;100815.72;;;8.68;91.67
41800;BME280;27468;47.460;19.034;2024-03-08T09:21:03;100822.59;;;8.90;90.92
41800;BME280;27468;47.460;19.034;2024-03-08T09:23:30;100813.75;;;9.06;90.43
41800;BME280;27468;47.460;19.034;2024-03-08T09:25:58;100804.97;;;9.06;89.17
41800;BME280;27468;47.460;19.034;2024-03-08T09:28:24;100820.66;;;9.21;87.32
41800;BME280;27468;47.460;19.034;2024-03-08T09:30:50;100798.72;;;9.22;87.79
41800;BME280;27468;47.460;19.034;2024-03-08T09:33:15;100827.47;;;9.45;88.88
41800;BME280;27468;47.460;19.034;2024-03-08T09:35:45;100807.53;;;9.16;86.46
41800;BME280;27468;47.460;19.034;2024-03-08T09:38:12;100802.47;;;8.87;87.26
41800;BME280;27468;47.460;19.034;2024-03-08T09:40:38;100820.78;;;9.03;88.24
41800;BME280;27468;47.460;19.034;2024-03-08T09:43:06;100798.81;;;9.08;87.89
41800;BME280;27468;47.460;19.034;2024-03-08T09:45:36;100814.53;;;9.19;87.04
41800;BME280;27468;47.460;19.034;2024-03-08T09:48:02;100825.03;;;9.20;87.33
41800;BME280;27468;47.460;19.034;2024-03-08T09:50:27;100810.16;;;9.16;86.81
41800;BME280;27468;47.460;19.034;2024-03-08T09:52:55;100812.06;;;8.94;88.32
41800;BME280;27468;47.460;19.034;2024-03-08T09:55:22;100833.75;;;9.25;88.45
41800;BME280;27468;47.460;19.034;2024-03-08T09:57:51;100817.13;;;9.23;88.33
41800;BME280;27468;47.460;19.034;2024-03-08T10:00:34;100817.88;;;9.38;88.07
41800;BME280;27468;47.460;19.034;2024-03-08T10:03:01;100809.13;;;9.36;87.01
41800;BME280;27468;47.460;19.034;2024-03-08T10:05:27;100826.50;;;9.56;85.75
41800;BME280;27468;47.460;19.034;2024-03-08T10:07:52;100811.41;;;9.74;85.05
41800;BME280;27468;47.460;19.034;2024-03-08T10:10:18;100807.09;;;9.68;84.52
41800;BME280;27468;47.460;19.034;2024-03-08T10:12:43;100827.84;;;9.97;83.61
41800;BME280;27468;47.460;19.034;2024-03-08T10:15:11;100819.00;;;10.04;83.07
41800;BME280;27468;47.460;19.034;2024-03-08T10:17:37;100818.91;;;10.12;83.40
41800;BME280;27468;47.460;19.034;2024-03-08T10:20:13;100804.78;;;10.19;82.08
41800;BME280;27468;47.460;19.034;2024-03-08T10:22:40;100800.31;;;10.30;81.36
41800;BME280;27468;47.460;19.034;2024-03-08T10:25:09;100809.00;;;10.37;81.33
41800;BME280;27468;47.460;19.034;2024-03-08T10:27:36;100825.97;;;10.10;81.11
41800;BME280;27468;47.460;19.034;2024-03-08T10:30:01;100799.81;;;9.91;82.38
41800;BME280;27468;47.460;19.034;2024-03-08T10:32:26;100816.53;;;9.86;83.63
41800;BME280;27468;47.460;19.034;2024-03-08T10:34:52;100804.97;;;10.01;83.20
41800;BME280;27468;47.460;19.034;2024-03-08T10:37:21;100822.53;;;10.03;82.10
41800;BME280;27468;47.460;19.034;2024-03-08T10:40:04;100794.44;;;10.02;83.39
41800;BME280;27468;47.460;19.034;2024-03-08T10:42:46;100813.56;;;10.22;81.79
41800;BME280;27468;47.460;19.034;2024-03-08T10:45:30;100777.00;;;9.90;81.91
41800;BME280;27468;47.460;19.034;2024-03-08T10:48:17;100806.53;;;10.18;81.03
41800;BME280;27468;47.460;19.034;2024-03-08T10:50:46;100819.72;;;10.21;82.87
41800;BME280;27468;47.460;19.034;2024-03-08T10:53:14;100810.13;;;10.11;82.84
41800;BME280;27468;47.460;19.034;2024-03-08T10:55:40;100819.97;;;9.96;83.52
41800;BME280;27468;47.460;19.034;2024-03-08T10:58:06;100819.13;;;9.92;83.66
41800;BME280;27468;47.460;19.034;2024-03-08T11:00:33;100817.19;;;10.08;83.37
41800;BME280;27468;47.460;19.034;2024-03-08T11:02:59;100824.16;;;10.15;82.69
41800;BME280;27468;47.460;19.034;2024-03-08T11:05:41;100815.44;;;10.07;83.13
41800;BME280;27468;47.460;19.034;2024-03-08T11:08:18;100820.66;;;10.14;83.38
41800;BME280;27468;47.460;19.034;2024-03-08T11:10:51;100792.81;;;9.89;83.95
41800;BME280;27468;47.460;19.034;2024-03-08T11:13:36;100798.84;;;9.99;83.85
41800;BME280;27468;47.460;19.034;2024-03-08T11:16:09;100782.22;;;9.95;84.05
41800;BME280;27468;47.460;19.034;2024-03-08T11:18:35;100803.06;;;10.16;82.13
41800;BME280;27468;47.460;19.034;2024-03-08T11:21:03;100807.13;;;10.45;80.95
41800;BME280;27468;47.460;19.034;2024-03-08T11:23:32;100779.34;;;10.19;81.34
41800;BME280;27468;47.460;19.034;2024-03-08T11:25:59;100792.44;;;10.25;82.09
41800;BME280;27468;47.460;19.034;2024-03-08T11:28:25;100798.28;;;10.49;81.81
41800;BME280;27468;47.460;19.034;2024-03-08T11:33:24;100767.19;;;10.74;78.81
41800;BME280;27468;47.460;19.034;2024-03-08T11:35:51;100744.16;;;10.86;78.31
41800;BME280;27468;47.460;19.034;2024-03-08T11:38:17;100775.50;;;11.05;76.34
41800;BME280;27468;47.460;19.034;2024-03-08T11:40:45;100781.75;;;10.98;78.11
41800;BME280;27468;47.460;19.034;2024-03-08T11:43:15;100781.09;;;10.85;76.45
41800;BME280;27468;47.460;19.034;2024-03-08T11:45:41;100763.63;;;10.76;77.39
41800;BME280;27468;47.460;19.034;2024-03-08T11:48:06;100763.25;;;11.01;76.59
41800;BME280;27468;47.460;19.034;2024-03-08T11:50:32;100761.75;;;10.86;75.36
41800;BME280;27468;47.460;19.034;2024-03-08T11:53:04;100753.69;;;10.95;75.24
41800;BME280;27468;47.460;19.034;2024-03-08T11:55:31;100748.03;;;11.18;74.03
41800;BME280;27468;47.460;19.034;2024-03-08T11:58:02;100761.47;;;11.03;74.59
41800;BME280;27468;47.460;19.034;2024-03-08T12:00:28;100773.19;;;11.39;74.13
41800;BME280;27468;47.460;19.034;2024-03-08T12:03:09;100766.59;;;11.12;72.62
41800;BME280;27468;47.460;19.034;2024-03-08T12:05:35;100756.66;;;11.28;73.40
41800;BME280;27468;47.460;19.034;2024-03-08T12:08:03;100753.81;;;11.40;72.30
41800;BME280;27468;47.460;19.034;2024-03-08T12:10:30;100742.16;;;11.53;72.67
41800;BME280;27468;47.460;19.034;2024-03-08T12:12:57;100769.91;;;11.74;71.06
41800;BME280;27468;47.460;19.034;2024-03-08T12:15:25;100737.06;;;11.42;70.27
41800;BME280;27468;47.460;19.034;2024-03-08T12:17:52;100734.59;;;11.32;70.78
41800;BME280;27468;47.460;19.034;2024-03-08T12:20:28;100728.06;;;11.52;71.38
41800;BME280;27468;47.460;19.034;2024-03-08T12:22:55;100730.81;;;11.46;71.88
41800;BME280;27468;47.460;19.034;2024-03-08T12:25:22;100754.78;;;11.85;71.47
41800;BME280;27468;47.460;19.034;2024-03-08T12:27:48;100737.22;;;11.82;72.05
41800;BME280;27468;47.460;19.034;2024-03-08T12:32:51;100717.84;;;11.34;71.27
41800;BME280;27468;47.460;19.034;2024-03-08T12:35:21;100753.81;;;11.40;72.94
41800;BME280;27468;47.460;19.034;2024-03-08T12:37:48;100748.06;;;11.16;72.79
41800;BME280;27468;47.460;19.034;2024-03-08T12:40:14;100738.81;;;10.91;73.93
41800;BME280;27468;47.460;19.034;2024-03-08T12:42:42;100727.63;;;10.75;73.91
41800;BME280;27468;47.460;19.034;2024-03-08T12:45:08;100732.00;;;10.76;73.64
41800;BME280;27468;47.460;19.034;2024-03-08T12:47:35;100755.66;;;10.81;74.56
41800;BME280;27468;47.460;19.034;2024-03-08T12:50:01;100745.13;;;10.81;74.67